sensor_id;sensor_type;location;lat;lon;timestamp;pressure;altitude;pressure_sealevel;temperature
50496;BMP280;38806;51.554;5.704;2022-07-12T00:00:26;101878.94;;;12.89
50496;BMP280;38806;51.554;5.704;2022-07-12T00:02:27;101902.66;;;12.85
50496;BMP280;38806;51.554;5.704;2022-07-12T00:04:27;101945.97;;;12.76
50496;BMP280;38806;51.554;5.704;2022-07-12T00:06:27;101990.44;;;12.65
50496;BMP280;38806;51.554;5.704;2022-07-12T00:08:28;102027.09;;;12.57
50496;BMP280;38806;51.554;5.704;2022-07-12T00:10:32;102049.97;;;12.47
50496;BMP280;38806;51.554;5.704;2022-07-12T00:12:39;101994.34;;;12.64
50496;BMP280;38806;51.554;5.704;2022-07-12T00:14:40;101966.34;;;12.62
50496;BMP280;38806;51.554;5.704;2022-07-12T00:16:40;101950.03;;;12.56
50496;BMP280;38806;51.554;5.704;2022-07-12T00:18:41;101957.25;;;12.50
50496;BMP280;38806;51.554;5.704;2022-07-12T00:20:41;101963.88;;;12.49
50496;BMP280;38806;51.554;5.704;2022-07-12T00:22:45;101991.22;;;12.42
50496;BMP280;38806;51.554;5.704;2022-07-12T00:24:49;102029.06;;;12.33
50496;BMP280;38806;51.554;5.704;2022-07-12T00:26:50;102058.03;;;12.23
50496;BMP280;38806;51.554;5.704;2022-07-12T00:29:05;102077.09;;;12.20
50496;BMP280;38806;51.554;5.704;2022-07-12T00:31:06;102074.53;;;12.16
50496;BMP280;38806;51.554;5.704;2022-07-12T00:33:07;102075.94;;;12.12
50496;BMP280;38806;51.554;5.704;2022-07-12T00:35:11;102020.88;;;12.27
50496;BMP280;38806;51.554;5.704;2022-07-12T00:37:15;101988.00;;;12.29
50496;BMP280;38806;51.554;5.704;2022-07-12T00:39:15;101995.09;;;12.17
50496;BMP280;38806;51.554;5.704;2022-07-12T00:41:15;102013.78;;;12.06
50496;BMP280;38806;51.554;5.704;2022-07-12T00:43:16;102015.72;;;12.06
50496;BMP280;38806;51.554;5.704;2022-07-12T00:45:16;102007.28;;;12.13
50496;BMP280;38806;51.554;5.704;2022-07-12T00:49:36;101948.13;;;12.09
50496;BMP280;38806;51.554;5.704;2022-07-12T00:51:36;101931.63;;;12.07
50496;BMP280;38806;51.554;5.704;2022-07-12T00:53:37;101955.28;;;11.88
50496;BMP280;38806;51.554;5.704;2022-07-12T00:55:37;101948.25;;;11.82
50496;BMP280;38806;51.554;5.704;2022-07-12T00:57:38;101967.16;;;11.73
50496;BMP280;38806;51.554;5.704;2022-07-12T00:59:46;101957.75;;;11.77
50496;BMP280;38806;51.554;5.704;2022-07-12T01:01:46;102018.13;;;11.61
50496;BMP280;38806;51.554;5.704;2022-07-12T01:03:47;102021.84;;;11.64
50496;BMP280;38806;51.554;5.704;2022-07-12T01:05:47;102034.75;;;11.60
50496;BMP280;38806;51.554;5.704;2022-07-12T01:07:49;102005.09;;;11.69
50496;BMP280;38806;51.554;5.704;2022-07-12T01:09:51;102040.16;;;11.60
50496;BMP280;38806;51.554;5.704;2022-07-12T01:11:57;102051.38;;;11.58
50496;BMP280;38806;51.554;5.704;2022-07-12T01:13:59;102057.97;;;11.57
50496;BMP280;38806;51.554;5.704;2022-07-12T01:16:00;102074.00;;;11.52
50496;BMP280;38806;51.554;5.704;2022-07-12T01:18:09;102112.19;;;11.41
50496;BMP280;38806;51.554;5.704;2022-07-12T01:20:09;102134.03;;;11.34
50496;BMP280;38806;51.554;5.704;2022-07-12T01:22:15;102137.94;;;11.33
50496;BMP280;38806;51.554;5.704;2022-07-12T01:24:22;102150.38;;;11.30
50496;BMP280;38806;51.554;5.704;2022-07-12T01:26:22;102153.06;;;11.30
50496;BMP280;38806;51.554;5.704;2022-07-12T01:28:23;102115.63;;;11.42
50496;BMP280;38806;51.554;5.704;2022-07-12T01:30:24;102088.22;;;11.43
50496;BMP280;38806;51.554;5.704;2022-07-12T01:32:24;102107.56;;;11.32
50496;BMP280;38806;51.554;5.704;2022-07-12T01:34:25;102090.78;;;11.38
50496;BMP280;38806;51.554;5.704;2022-07-12T01:36:25;102089.28;;;11.37
50496;BMP280;38806;51.554;5.704;2022-07-12T01:38:26;102105.75;;;11.39
50496;BMP280;38806;51.554;5.704;2022-07-12T01:40:26;102123.53;;;11.36
50496;BMP280;38806;51.554;5.704;2022-07-12T01:42:28;102133.00;;;11.31
50496;BMP280;38806;51.554;5.704;2022-07-12T01:44:35;102144.97;;;11.30
50496;BMP280;38806;51.554;5.704;2022-07-12T01:46:42;102188.91;;;11.18
50496;BMP280;38806;51.554;5.704;2022-07-12T01:48:42;102215.84;;;11.09
50496;BMP280;38806;51.554;5.704;2022-07-12T01:50:43;102235.59;;;11.06
50496;BMP280;38806;51.554;5.704;2022-07-12T01:52:44;102267.13;;;10.96
50496;BMP280;38806;51.554;5.704;2022-07-12T01:54:45;102276.97;;;10.90
50496;BMP280;38806;51.554;5.704;2022-07-12T01:56:52;102282.94;;;10.85
50496;BMP280;38806;51.554;5.704;2022-07-12T01:58:52;102273.53;;;10.90
50496;BMP280;38806;51.554;5.704;2022-07-12T02:00:52;102235.44;;;11.00
50496;BMP280;38806;51.554;5.704;2022-07-12T02:02:54;102223.91;;;11.00
50496;BMP280;38806;51.554;5.704;2022-07-12T02:04:54;102212.84;;;10.98
50496;BMP280;38806;51.554;5.704;2022-07-12T02:06:56;102220.00;;;10.92
50496;BMP280;38806;51.554;5.704;2022-07-12T02:08:56;102240.75;;;10.82
50496;BMP280;38806;51.554;5.704;2022-07-12T02:10:59;102248.19;;;10.78
50496;BMP280;38806;51.554;5.704;2022-07-12T02:13:03;102228.03;;;10.83
50496;BMP280;38806;51.554;5.704;2022-07-12T02:15:06;102207.56;;;10.85
50496;BMP280;38806;51.554;5.704;2022-07-12T02:17:07;102211.56;;;10.81
50496;BMP280;38806;51.554;5.704;2022-07-12T02:19:08;102206.63;;;10.79
50496;BMP280;38806;51.554;5.704;2022-07-12T02:21:11;102197.81;;;10.79
50496;BMP280;38806;51.554;5.704;2022-07-12T02:23:19;102121.44;;;11.04
50496;BMP280;38806;51.554;5.704;2022-07-12T02:25:22;102101.25;;;11.08
50496;BMP280;38806;51.554;5.704;2022-07-12T02:27:22;102086.28;;;11.07
50496;BMP280;38806;51.554;5.704;2022-07-12T02:29:22;102111.41;;;10.95
50496;BMP280;38806;51.554;5.704;2022-07-12T02:31:23;102037.81;;;11.16
50496;BMP280;38806;51.554;5.704;2022-07-12T02:33:23;101940.00;;;11.52
50496;BMP280;38806;51.554;5.704;2022-07-12T02:35:24;102014.47;;;11.31
50496;BMP280;38806;51.554;5.704;2022-07-12T02:37:25;102073.88;;;11.10
50496;BMP280;38806;51.554;5.704;2022-07-12T02:39:26;102100.31;;;11.02
50496;BMP280;38806;51.554;5.704;2022-07-12T02:41:26;102115.91;;;10.98
50496;BMP280;38806;51.554;5.704;2022-07-12T02:43:29;102135.34;;;10.93
50496;BMP280;38806;51.554;5.704;2022-07-12T02:45:29;102135.47;;;10.89
50496;BMP280;38806;51.554;5.704;2022-07-12T02:47:30;102111.72;;;10.97
50496;BMP280;38806;51.554;5.704;2022-07-12T02:49:30;102123.06;;;10.92
50496;BMP280;38806;51.554;5.704;2022-07-12T02:51:31;102120.06;;;10.90
50496;BMP280;38806;51.554;5.704;2022-07-12T02:53:32;102115.44;;;10.90
50496;BMP280;38806;51.554;5.704;2022-07-12T02:55:37;102116.19;;;10.91
50496;BMP280;38806;51.554;5.704;2022-07-12T02:57:40;102135.31;;;10.84
50496;BMP280;38806;51.554;5.704;2022-07-12T02:59:41;102154.25;;;10.71
50496;BMP280;38806;51.554;5.704;2022-07-12T03:01:41;102179.94;;;10.63
50496;BMP280;38806;51.554;5.704;2022-07-12T03:03:42;102196.66;;;10.58
50496;BMP280;38806;51.554;5.704;2022-07-12T03:05:42;102207.28;;;10.52
50496;BMP280;38806;51.554;5.704;2022-07-12T03:07:43;102223.22;;;10.47
50496;BMP280;38806;51.554;5.704;2022-07-12T03:09:43;102232.94;;;10.44
50496;BMP280;38806;51.554;5.704;2022-07-12T03:11:43;102248.44;;;10.40
50496;BMP280;38806;51.554;5.704;2022-07-12T03:13:44;102267.84;;;10.35
50496;BMP280;38806;51.554;5.704;2022-07-12T03:15:50;102255.91;;;10.36
50496;BMP280;38806;51.554;5.704;2022-07-12T03:17:57;102172.34;;;10.61
50496;BMP280;38806;51.554;5.704;2022-07-12T03:20:04;102177.22;;;10.54
50496;BMP280;38806;51.554;5.704;2022-07-12T03:22:11;102203.13;;;10.39
50496;BMP280;38806;51.554;5.704;2022-07-12T03:24:21;102125.19;;;10.57
50496;BMP280;38806;51.554;5.704;2022-07-12T03:26:21;102108.03;;;10.63
50496;BMP280;38806;51.554;5.704;2022-07-12T03:28:22;102125.06;;;10.51
50496;BMP280;38806;51.554;5.704;2022-07-12T03:30:22;102150.84;;;10.40
50496;BMP280;38806;51.554;5.704;2022-07-12T03:32:24;102154.56;;;10.33
50496;BMP280;38806;51.554;5.704;2022-07-12T03:34:24;102169.03;;;10.26
50496;BMP280;38806;51.554;5.704;2022-07-12T03:36:24;102162.91;;;10.26
50496;BMP280;38806;51.554;5.704;2022-07-12T03:38:25;102183.75;;;10.22
50496;BMP280;38806;51.554;5.704;2022-07-12T03:40:25;102123.19;;;10.39
50496;BMP280;38806;51.554;5.704;2022-07-12T03:42:26;102143.38;;;10.34
50496;BMP280;38806;51.554;5.704;2022-07-12T03:44:26;102121.25;;;10.40
50496;BMP280;38806;51.554;5.704;2022-07-12T03:46:26;102145.41;;;10.30
50496;BMP280;38806;51.554;5.704;2022-07-12T03:48:27;102163.34;;;10.24
50496;BMP280;38806;51.554;5.704;2022-07-12T03:50:27;102161.06;;;10.23
50496;BMP280;38806;51.554;5.704;2022-07-12T03:52:27;102163.59;;;10.17
50496;BMP280;38806;51.554;5.704;2022-07-12T03:54:28;102142.22;;;10.23
50496;BMP280;38806;51.554;5.704;2022-07-12T03:56:28;102138.03;;;10.22
50496;BMP280;38806;51.554;5.704;2022-07-12T03:58:47;102139.53;;;10.23
50496;BMP280;38806;51.554;5.704;2022-07-12T04:00:54;102157.03;;;10.18
50496;BMP280;38806;51.554;5.704;2022-07-12T04:02:57;102155.09;;;10.19
50496;BMP280;38806;51.554;5.704;2022-07-12T04:05:05;102115.28;;;10.35
50496;BMP280;38806;51.554;5.704;2022-07-12T04:07:06;102107.38;;;10.41
50496;BMP280;38806;51.554;5.704;2022-07-12T04:09:07;102090.94;;;10.48
50496;BMP280;38806;51.554;5.704;2022-07-12T04:11:07;102126.97;;;10.42
50496;BMP280;38806;51.554;5.704;2022-07-12T04:13:08;102095.13;;;10.49
50496;BMP280;38806;51.554;5.704;2022-07-12T04:15:08;102088.59;;;10.50
50496;BMP280;38806;51.554;5.704;2022-07-12T04:17:11;102071.38;;;10.57
50496;BMP280;38806;51.554;5.704;2022-07-12T04:19:12;102072.28;;;10.54
50496;BMP280;38806;51.554;5.704;2022-07-12T04:21:12;102065.56;;;10.58
50496;BMP280;38806;51.554;5.704;2022-07-12T04:23:13;102066.00;;;10.57
50496;BMP280;38806;51.554;5.704;2022-07-12T04:25:14;102027.91;;;10.67
50496;BMP280;38806;51.554;5.704;2022-07-12T04:27:14;102012.56;;;10.77
50496;BMP280;38806;51.554;5.704;2022-07-12T04:29:18;102020.75;;;10.74
50496;BMP280;38806;51.554;5.704;2022-07-12T04:31:21;102035.56;;;10.69
50496;BMP280;38806;51.554;5.704;2022-07-12T04:33:22;102053.03;;;10.64
50496;BMP280;38806;51.554;5.704;2022-07-12T04:35:23;102062.72;;;10.62
50496;BMP280;38806;51.554;5.704;2022-07-12T04:37:23;102066.47;;;10.64
50496;BMP280;38806;51.554;5.704;2022-07-12T04:39:23;102071.41;;;10.66
50496;BMP280;38806;51.554;5.704;2022-07-12T04:41:24;102063.50;;;10.72
50496;BMP280;38806;51.554;5.704;2022-07-12T04:43:24;102071.13;;;10.73
50496;BMP280;38806;51.554;5.704;2022-07-12T04:45:25;102076.81;;;10.75
50496;BMP280;38806;51.554;5.704;2022-07-12T04:47:25;102086.38;;;10.76
50496;BMP280;38806;51.554;5.704;2022-07-12T04:49:26;102078.94;;;10.80
50496;BMP280;38806;51.554;5.704;2022-07-12T04:51:27;102064.91;;;10.85
50496;BMP280;38806;51.554;5.704;2022-07-12T04:53:33;102050.97;;;10.96
50496;BMP280;38806;51.554;5.704;2022-07-12T04:55:34;102021.06;;;11.12
50496;BMP280;38806;51.554;5.704;2022-07-12T04:57:40;101997.69;;;11.18
50496;BMP280;38806;51.554;5.704;2022-07-12T04:59:41;101986.66;;;11.25
50496;BMP280;38806;51.554;5.704;2022-07-12T05:01:41;101968.50;;;11.35
50496;BMP280;38806;51.554;5.704;2022-07-12T05:03:42;101950.81;;;11.43
50496;BMP280;38806;51.554;5.704;2022-07-12T05:05:42;101924.88;;;11.55
50496;BMP280;38806;51.554;5.704;2022-07-12T05:07:48;101914.69;;;11.59
50496;BMP280;38806;51.554;5.704;2022-07-12T05:09:51;101910.59;;;11.63
50496;BMP280;38806;51.554;5.704;2022-07-12T05:11:52;101884.81;;;11.72
50496;BMP280;38806;51.554;5.704;2022-07-12T05:13:52;101864.25;;;11.83
50496;BMP280;38806;51.554;5.704;2022-07-12T05:15:52;101829.69;;;11.96
50496;BMP280;38806;51.554;5.704;2022-07-12T05:17:56;101783.22;;;12.16
50496;BMP280;38806;51.554;5.704;2022-07-12T05:20:03;101734.97;;;12.33
50496;BMP280;38806;51.554;5.704;2022-07-12T05:22:06;101651.06;;;12.66
50496;BMP280;38806;51.554;5.704;2022-07-12T05:24:07;101659.63;;;12.64
50496;BMP280;38806;51.554;5.704;2022-07-12T05:26:11;101668.84;;;12.58
50496;BMP280;38806;51.554;5.704;2022-07-12T05:28:17;101641.28;;;12.68
50496;BMP280;38806;51.554;5.704;2022-07-12T05:30:18;101630.56;;;12.74
50496;BMP280;38806;51.554;5.704;2022-07-12T05:32:25;101639.88;;;12.73
50496;BMP280;38806;51.554;5.704;2022-07-12T05:34:25;101598.34;;;12.91
50496;BMP280;38806;51.554;5.704;2022-07-12T05:36:26;101544.31;;;13.11
50496;BMP280;38806;51.554;5.704;2022-07-12T05:38:26;101530.63;;;13.20
50496;BMP280;38806;51.554;5.704;2022-07-12T05:40:27;101535.78;;;13.18
50496;BMP280;38806;51.554;5.704;2022-07-12T05:42:27;101410.88;;;13.71
50496;BMP280;38806;51.554;5.704;2022-07-12T05:44:28;101446.69;;;13.61
50496;BMP280;38806;51.554;5.704;2022-07-12T05:46:28;101398.13;;;13.83
50496;BMP280;38806;51.554;5.704;2022-07-12T05:48:29;101317.31;;;14.19
50496;BMP280;38806;51.554;5.704;2022-07-12T05:50:29;101285.63;;;14.36
50496;BMP280;38806;51.554;5.704;2022-07-12T05:52:29;101219.38;;;14.70
50496;BMP280;38806;51.554;5.704;2022-07-12T05:54:49;101158.63;;;15.07
50496;BMP280;38806;51.554;5.704;2022-07-12T05:56:55;101071.41;;;15.50
50496;BMP280;38806;51.554;5.704;2022-07-12T05:58:56;101066.34;;;15.65
50496;BMP280;38806;51.554;5.704;2022-07-12T06:01:02;101069.13;;;15.84
50496;BMP280;38806;51.554;5.704;2022-07-12T06:03:06;101056.31;;;16.03
50496;BMP280;38806;51.554;5.704;2022-07-12T06:05:07;101051.06;;;16.29
50496;BMP280;38806;51.554;5.704;2022-07-12T06:07:07;101149.22;;;16.14
50496;BMP280;38806;51.554;5.704;2022-07-12T06:09:09;101237.34;;;16.08
50496;BMP280;38806;51.554;5.704;2022-07-12T06:11:09;101282.97;;;16.09
50496;BMP280;38806;51.554;5.704;2022-07-12T06:13:09;101329.63;;;16.02
50496;BMP280;38806;51.554;5.704;2022-07-12T06:15:10;101320.19;;;16.14
50496;BMP280;38806;51.554;5.704;2022-07-12T06:17:10;101260.16;;;16.48
50496;BMP280;38806;51.554;5.704;2022-07-12T06:19:11;101246.69;;;16.61
50496;BMP280;38806;51.554;5.704;2022-07-12T06:21:17;101282.75;;;16.62
50496;BMP280;38806;51.554;5.704;2022-07-12T06:23:23;101299.47;;;16.66
50496;BMP280;38806;51.554;5.704;2022-07-12T06:25:24;101207.59;;;17.07
50496;BMP280;38806;51.554;5.704;2022-07-12T06:27:25;101265.66;;;17.10
50496;BMP280;38806;51.554;5.704;2022-07-12T06:29:25;101273.16;;;17.22
50496;BMP280;38806;51.554;5.704;2022-07-12T06:31:26;101251.91;;;17.40
50496;BMP280;38806;51.554;5.704;2022-07-12T06:33:26;101263.00;;;17.60
50496;BMP280;38806;51.554;5.704;2022-07-12T06:35:26;101303.84;;;17.74
50496;BMP280;38806;51.554;5.704;2022-07-12T06:37:28;101302.56;;;17.93
50496;BMP280;38806;51.554;5.704;2022-07-12T06:39:28;101340.13;;;17.95
50496;BMP280;38806;51.554;5.704;2022-07-12T06:41:29;101368.22;;;18.03
50496;BMP280;38806;51.554;5.704;2022-07-12T06:43:33;101300.03;;;18.27
50496;BMP280;38806;51.554;5.704;2022-07-12T06:45:33;101397.91;;;18.20
50496;BMP280;38806;51.554;5.704;2022-07-12T06:47:34;101432.38;;;18.17
50496;BMP280;38806;51.554;5.704;2022-07-12T06:49:37;101415.84;;;18.28
50496;BMP280;38806;51.554;5.704;2022-07-12T06:51:37;101452.25;;;18.44
50496;BMP280;38806;51.554;5.704;2022-07-12T06:53:39;101575.81;;;18.28
50496;BMP280;38806;51.554;5.704;2022-07-12T06:55:42;101555.03;;;18.44
50496;BMP280;38806;51.554;5.704;2022-07-12T06:57:51;101592.88;;;18.47
50496;BMP280;38806;51.554;5.704;2022-07-12T06:59:58;101589.78;;;18.56
50496;BMP280;38806;51.554;5.704;2022-07-12T07:02:05;101613.63;;;18.50
50496;BMP280;38806;51.554;5.704;2022-07-12T07:04:05;101543.25;;;18.54
50496;BMP280;38806;51.554;5.704;2022-07-12T07:06:06;101453.69;;;18.64
50496;BMP280;38806;51.554;5.704;2022-07-12T07:08:06;101428.13;;;18.93
50496;BMP280;38806;51.554;5.704;2022-07-12T07:10:07;101608.19;;;18.88
50496;BMP280;38806;51.554;5.704;2022-07-12T07:12:08;101700.75;;;18.93
50496;BMP280;38806;51.554;5.704;2022-07-12T07:14:09;101730.53;;;18.91
50496;BMP280;38806;51.554;5.704;2022-07-12T07:16:09;101702.63;;;19.04
50496;BMP280;38806;51.554;5.704;2022-07-12T07:18:09;101761.41;;;19.18
50496;BMP280;38806;51.554;5.704;2022-07-12T07:20:19;101772.81;;;19.17
50496;BMP280;38806;51.554;5.704;2022-07-12T07:22:23;101708.00;;;19.55
50496;BMP280;38806;51.554;5.704;2022-07-12T07:24:23;101857.00;;;19.44
50496;BMP280;38806;51.554;5.704;2022-07-12T07:26:23;101658.78;;;19.47
50496;BMP280;38806;51.554;5.704;2022-07-12T07:28:24;101634.88;;;19.66
50496;BMP280;38806;51.554;5.704;2022-07-12T07:30:24;101821.91;;;19.86
50496;BMP280;38806;51.554;5.704;2022-07-12T07:32:43;101716.88;;;20.00
50496;BMP280;38806;51.554;5.704;2022-07-12T07:34:48;101919.34;;;20.81
50496;BMP280;38806;51.554;5.704;2022-07-12T07:36:50;102106.25;;;21.55
50496;BMP280;38806;51.554;5.704;2022-07-12T07:38:50;102241.19;;;21.95
50496;BMP280;38806;51.554;5.704;2022-07-12T07:40:51;102128.34;;;22.17
50496;BMP280;38806;51.554;5.704;2022-07-12T07:42:51;102038.13;;;22.19
50496;BMP280;38806;51.554;5.704;2022-07-12T07:44:52;102085.41;;;22.54
50496;BMP280;38806;51.554;5.704;2022-07-12T07:46:52;102351.75;;;22.50
50496;BMP280;38806;51.554;5.704;2022-07-12T07:48:52;102358.38;;;22.55
50496;BMP280;38806;51.554;5.704;2022-07-12T07:50:53;102387.94;;;22.62
50496;BMP280;38806;51.554;5.704;2022-07-12T07:52:54;102384.56;;;22.56
50496;BMP280;38806;51.554;5.704;2022-07-12T07:54:54;102392.75;;;22.82
50496;BMP280;38806;51.554;5.704;2022-07-12T07:56:55;102404.94;;;23.08
50496;BMP280;38806;51.554;5.704;2022-07-12T07:58:58;102392.22;;;24.01
50496;BMP280;38806;51.554;5.704;2022-07-12T08:00:59;102596.31;;;24.35
50496;BMP280;38806;51.554;5.704;2022-07-12T08:03:06;102533.84;;;24.43
50496;BMP280;38806;51.554;5.704;2022-07-12T08:05:07;102582.28;;;24.75
50496;BMP280;38806;51.554;5.704;2022-07-12T08:07:07;102592.44;;;25.08
50496;BMP280;38806;51.554;5.704;2022-07-12T08:09:08;102582.25;;;24.95
50496;BMP280;38806;51.554;5.704;2022-07-12T08:11:09;102592.47;;;25.90
50496;BMP280;38806;51.554;5.704;2022-07-12T08:13:10;102593.59;;;26.32
50496;BMP280;38806;51.554;5.704;2022-07-12T08:15:16;102633.09;;;26.65
50496;BMP280;38806;51.554;5.704;2022-07-12T08:17:23;102479.97;;;27.55
50496;BMP280;38806;51.554;5.704;2022-07-12T08:19:23;102551.91;;;27.23
50496;BMP280;38806;51.554;5.704;2022-07-12T08:21:24;102643.66;;;27.14
50496;BMP280;38806;51.554;5.704;2022-07-12T08:23:24;102530.13;;;27.77
50496;BMP280;38806;51.554;5.704;2022-07-12T08:25:25;102622.09;;;27.85
50496;BMP280;38806;51.554;5.704;2022-07-12T08:27:25;102606.25;;;28.44
50496;BMP280;38806;51.554;5.704;2022-07-12T08:29:32;102513.91;;;29.03
50496;BMP280;38806;51.554;5.704;2022-07-12T08:31:36;102667.50;;;28.83
50496;BMP280;38806;51.554;5.704;2022-07-12T08:33:42;102679.22;;;28.74
50496;BMP280;38806;51.554;5.704;2022-07-12T08:35:43;102667.06;;;28.86
50496;BMP280;38806;51.554;5.704;2022-07-12T08:37:46;102601.91;;;29.39
50496;BMP280;38806;51.554;5.704;2022-07-12T08:39:49;102756.16;;;28.83
50496;BMP280;38806;51.554;5.704;2022-07-12T08:41:50;102567.34;;;29.40
50496;BMP280;38806;51.554;5.704;2022-07-12T08:43:51;102715.78;;;29.41
50496;BMP280;38806;51.554;5.704;2022-07-12T08:45:51;102738.88;;;29.53
50496;BMP280;38806;51.554;5.704;2022-07-12T08:47:52;102559.88;;;30.17
50496;BMP280;38806;51.554;5.704;2022-07-12T08:50:15;102570.13;;;30.34
50496;BMP280;38806;51.554;5.704;2022-07-12T08:52:30;102545.81;;;30.54
50496;BMP280;38806;51.554;5.704;2022-07-12T08:54:40;102623.78;;;30.46
50496;BMP280;38806;51.554;5.704;2022-07-12T08:56:44;102700.56;;;29.96
50496;BMP280;38806;51.554;5.704;2022-07-12T08:58:44;102624.06;;;30.60
50496;BMP280;38806;51.554;5.704;2022-07-12T09:00:45;102615.56;;;30.48
50496;BMP280;38806;51.554;5.704;2022-07-12T09:02:50;102721.19;;;29.75
50496;BMP280;38806;51.554;5.704;2022-07-12T09:05:05;102596.88;;;30.29
50496;BMP280;38806;51.554;5.704;2022-07-12T09:07:14;102596.72;;;30.75
50496;BMP280;38806;51.554;5.704;2022-07-12T09:09:45;102715.91;;;30.06
50496;BMP280;38806;51.554;5.704;2022-07-12T09:12:07;102577.00;;;30.23
50496;BMP280;38806;51.554;5.704;2022-07-12T09:14:22;102683.56;;;30.38
50496;BMP280;38806;51.554;5.704;2022-07-12T09:16:25;102518.59;;;31.12
50496;BMP280;38806;51.554;5.704;2022-07-12T09:18:25;102528.25;;;31.11
50496;BMP280;38806;51.554;5.704;2022-07-12T09:20:35;102573.09;;;31.36
50496;BMP280;38806;51.554;5.704;2022-07-12T09:22:36;102479.34;;;31.81
50496;BMP280;38806;51.554;5.704;2022-07-12T09:24:43;102488.97;;;32.57
50496;BMP280;38806;51.554;5.704;2022-07-12T09:26:57;102486.88;;;32.93
50496;BMP280;38806;51.554;5.704;2022-07-12T09:29:09;102408.19;;;33.06
50496;BMP280;38806;51.554;5.704;2022-07-12T09:31:17;102540.94;;;33.11
50496;BMP280;38806;51.554;5.704;2022-07-12T09:33:18;102418.13;;;33.46
50496;BMP280;38806;51.554;5.704;2022-07-12T09:36:06;102418.13;;;33.46
50496;BMP280;38806;51.554;5.704;2022-07-12T09:38:09;102574.69;;;33.63
50496;BMP280;38806;51.554;5.704;2022-07-12T09:40:16;102341.06;;;34.61
50496;BMP280;38806;51.554;5.704;2022-07-12T09:42:28;102474.00;;;34.51
50496;BMP280;38806;51.554;5.704;2022-07-12T09:44:30;102452.94;;;34.09
50496;BMP280;38806;51.554;5.704;2022-07-12T09:46:32;102469.50;;;34.73
50496;BMP280;38806;51.554;5.704;2022-07-12T09:48:36;102381.28;;;34.84
50496;BMP280;38806;51.554;5.704;2022-07-12T09:50:38;102418.72;;;35.06
50496;BMP280;38806;51.554;5.704;2022-07-12T09:52:48;102370.97;;;35.62
50496;BMP280;38806;51.554;5.704;2022-07-12T09:54:53;102400.16;;;35.73
50496;BMP280;38806;51.554;5.704;2022-07-12T09:56:58;102494.22;;;35.06
50496;BMP280;38806;51.554;5.704;2022-07-12T09:59:07;102538.91;;;33.85
50496;BMP280;38806;51.554;5.704;2022-07-12T10:01:11;102507.53;;;34.64
50496;BMP280;38806;51.554;5.704;2022-07-12T10:03:13;102428.84;;;35.13
50496;BMP280;38806;51.554;5.704;2022-07-12T10:05:24;102413.69;;;35.18
50496;BMP280;38806;51.554;5.704;2022-07-12T10:07:32;102524.78;;;34.75
50496;BMP280;38806;51.554;5.704;2022-07-12T10:09:34;102393.53;;;35.66
50496;BMP280;38806;51.554;5.704;2022-07-12T10:11:43;102459.88;;;34.62
50496;BMP280;38806;51.554;5.704;2022-07-12T10:13:44;102467.56;;;34.76
50496;BMP280;38806;51.554;5.704;2022-07-12T10:15:51;102277.28;;;36.32
50496;BMP280;38806;51.554;5.704;2022-07-12T10:18:15;102456.22;;;35.59
50496;BMP280;38806;51.554;5.704;2022-07-12T10:20:20;102457.56;;;35.58
50496;BMP280;38806;51.554;5.704;2022-07-12T10:22:24;102403.75;;;36.07
50496;BMP280;38806;51.554;5.704;2022-07-12T10:26:38;102452.00;;;36.05
50496;BMP280;38806;51.554;5.704;2022-07-12T10:29:06;102444.13;;;36.17
50496;BMP280;38806;51.554;5.704;2022-07-12T10:31:13;102388.06;;;36.51
50496;BMP280;38806;51.554;5.704;2022-07-12T10:33:22;102400.38;;;36.44
50496;BMP280;38806;51.554;5.704;2022-07-12T10:35:25;102465.66;;;36.46
50496;BMP280;38806;51.554;5.704;2022-07-12T10:37:28;102461.09;;;35.75
50496;BMP280;38806;51.554;5.704;2022-07-12T10:39:30;102474.81;;;36.15
50496;BMP280;38806;51.554;5.704;2022-07-12T10:42:16;102338.09;;;36.81
50496;BMP280;38806;51.554;5.704;2022-07-12T10:44:36;102475.16;;;36.39
50496;BMP280;38806;51.554;5.704;2022-07-12T10:46:58;102498.88;;;36.36
50496;BMP280;38806;51.554;5.704;2022-07-12T10:49:29;102498.88;;;36.36
50496;BMP280;38806;51.554;5.704;2022-07-12T10:51:36;102568.94;;;35.03
50496;BMP280;38806;51.554;5.704;2022-07-12T10:53:37;102557.13;;;34.78
50496;BMP280;38806;51.554;5.704;2022-07-12T10:55:39;102485.59;;;35.45
50496;BMP280;38806;51.554;5.704;2022-07-12T10:57:46;102547.38;;;35.06
50496;BMP280;38806;51.554;5.704;2022-07-12T10:59:52;102445.00;;;36.22
50496;BMP280;38806;51.554;5.704;2022-07-12T11:01:57;102448.59;;;36.40
50496;BMP280;38806;51.554;5.704;2022-07-12T11:04:09;102472.63;;;36.45
50496;BMP280;38806;51.554;5.704;2022-07-12T11:06:14;102504.69;;;35.93
50496;BMP280;38806;51.554;5.704;2022-07-12T11:08:21;102448.88;;;36.31
50496;BMP280;38806;51.554;5.704;2022-07-12T11:10:22;102456.16;;;36.53
50496;BMP280;38806;51.554;5.704;2022-07-12T11:12:31;102505.69;;;36.00
50496;BMP280;38806;51.554;5.704;2022-07-12T11:14:38;102476.50;;;36.54
50496;BMP280;38806;51.554;5.704;2022-07-12T11:16:48;102453.66;;;36.95
50496;BMP280;38806;51.554;5.704;2022-07-12T11:18:50;102467.50;;;36.73
50496;BMP280;38806;51.554;5.704;2022-07-12T11:20:57;102540.09;;;36.02
50496;BMP280;38806;51.554;5.704;2022-07-12T11:23:08;102418.03;;;36.64
50496;BMP280;38806;51.554;5.704;2022-07-12T11:25:11;102408.88;;;37.34
50496;BMP280;38806;51.554;5.704;2022-07-12T11:27:13;102448.84;;;37.52
50496;BMP280;38806;51.554;5.704;2022-07-12T11:29:22;102373.50;;;38.27
50496;BMP280;38806;51.554;5.704;2022-07-12T11:31:25;102501.56;;;37.54
50496;BMP280;38806;51.554;5.704;2022-07-12T11:33:35;102450.81;;;37.87
50496;BMP280;38806;51.554;5.704;2022-07-12T11:35:46;102358.28;;;38.56
50496;BMP280;38806;51.554;5.704;2022-07-12T11:37:59;102399.38;;;38.89
50496;BMP280;38806;51.554;5.704;2022-07-12T11:40:07;102356.44;;;38.88
50496;BMP280;38806;51.554;5.704;2022-07-12T11:42:16;102543.34;;;38.20
50496;BMP280;38806;51.554;5.704;2022-07-12T11:44:50;102575.00;;;36.62
50496;BMP280;38806;51.554;5.704;2022-07-12T11:46:51;102526.84;;;37.36